createdAt,value
2019-03-28T00:00:31.924Z,60.97
2019-03-28T00:05:34.372Z,61.70
2019-03-28T00:10:36.918Z,61.69
2019-03-28T00:15:39.319Z,61.71
2019-03-28T00:20:41.792Z,61.58
2019-03-28T00:25:44.257Z,61.54
2019-03-28T00:30:46.728Z,61.73
2019-03-28T00:35:49.209Z,62.29
2019-03-28T00:40:51.680Z,62.96
2019-03-28T00:45:54.131Z,62.52
2019-03-28T00:50:56.606Z,62.46
2019-03-28T00:55:59.075Z,62.36
2019-03-28T01:01:01.541Z,62.69
2019-03-28T01:06:04.003Z,62.94
2019-03-28T01:11:06.474Z,62.92
2019-03-28T01:16:08.938Z,63.16
2019-03-28T01:21:11.404Z,63.07
2019-03-28T01:26:13.867Z,62.91
2019-03-28T01:31:16.331Z,63.07
2019-03-28T01:36:18.802Z,62.93
2019-03-28T01:41:21.248Z,63.22
2019-03-28T01:46:23.748Z,63.28
2019-03-28T01:51:26.208Z,63.58
2019-03-28T01:56:28.665Z,63.38
2019-03-28T02:01:31.153Z,63.23
2019-03-28T02:06:34.187Z,64.05
2019-03-28T02:11:36.091Z,64.04
2019-03-28T02:16:38.553Z,64.25
2019-03-28T02:21:41.014Z,64.21
2019-03-28T02:26:43.476Z,64.54
2019-03-28T02:31:45.921Z,64.62
2019-03-28T02:36:48.401Z,64.42
2019-03-28T02:41:50.895Z,64.57
2019-03-28T02:46:53.364Z,64.46
2019-03-28T02:51:55.882Z,64.53
2019-03-28T02:56:58.313Z,64.69
2019-03-28T03:02:00.807Z,64.77
2019-03-28T03:07:03.269Z,64.74
2019-03-28T03:12:05.731Z,64.83
2019-03-28T03:17:08.254Z,64.56
2019-03-28T03:22:10.747Z,64.44
2019-03-28T03:27:13.232Z,64.14
2019-03-28T03:32:15.708Z,64.57
2019-03-28T03:37:18.164Z,64.57
2019-03-28T03:42:20.642Z,64.57
2019-03-28T03:47:23.112Z,64.43
2019-03-28T03:52:25.578Z,64.93
2019-03-28T03:57:28.050Z,65.30
2019-03-28T04:02:30.509Z,65.13
2019-03-28T04:07:32.988Z,64.88
2019-03-28T04:12:35.449Z,64.71
2019-03-28T04:17:37.932Z,65.00
2019-03-28T04:22:40.400Z,65.09
2019-03-28T04:27:42.864Z,64.58
2019-03-28T04:32:45.340Z,64.56
2019-03-28T04:37:47.801Z,64.93
2019-03-28T04:42:50.267Z,64.70
2019-03-28T04:47:52.755Z,65.00
2019-03-28T04:52:55.230Z,65.37
2019-03-28T04:57:57.691Z,65.32
2019-03-28T05:03:00.168Z,65.47
2019-03-28T05:08:02.643Z,65.09
2019-03-28T05:13:05.104Z,65.42
2019-03-28T05:18:07.565Z,65.35
2019-03-28T05:23:10.095Z,65.24
2019-03-28T05:28:12.566Z,64.61
2019-03-28T05:33:15.032Z,64.54
2019-03-28T05:38:17.513Z,64.36
2019-03-28T05:43:19.996Z,64.03
2019-03-28T05:48:22.485Z,63.81
2019-03-28T05:53:24.960Z,63.88
2019-03-28T05:58:27.431Z,63.25
2019-03-28T06:03:29.914Z,63.22
2019-03-28T06:08:32.390Z,62.95
2019-03-28T06:13:34.858Z,62.43
2019-03-28T06:18:37.320Z,62.46
2019-03-28T06:23:39.786Z,62.48
2019-03-28T06:28:42.250Z,62.66
2019-03-28T06:33:44.723Z,62.23
2019-03-28T06:38:47.194Z,60.94
2019-03-28T06:43:49.659Z,60.03
2019-03-28T06:48:52.134Z,59.52
2019-03-28T06:53:57.071Z,59.77
2019-03-28T06:58:57.076Z,59.04
2019-03-28T07:03:59.534Z,58.74
2019-03-28T07:09:02.010Z,58.18
2019-03-28T07:14:04.536Z,57.08
2019-03-28T07:19:07.001Z,56.48
2019-03-28T07:24:09.514Z,55.47
2019-03-28T07:29:11.985Z,54.98
2019-03-28T07:34:14.478Z,54.74
2019-03-28T07:39:19.115Z,53.98
2019-03-28T07:44:19.442Z,53.11
2019-03-28T07:49:21.911Z,51.35
2019-03-28T07:54:24.386Z,48.53
2019-03-28T07:59:26.876Z,45.86
2019-03-28T08:04:29.383Z,40.74
2019-03-28T08:09:36.790Z,36.31
2019-03-28T08:14:34.327Z,37.33
2019-03-28T08:19:37.617Z,36.61
2019-03-28T08:24:39.289Z,33.78
2019-03-28T08:29:41.772Z,31.76
2019-03-28T08:34:44.764Z,31.04
2019-03-28T08:39:46.725Z,31.44
2019-03-28T08:44:49.212Z,29.40
2019-03-28T08:49:51.741Z,27.94
2019-03-28T08:54:54.229Z,24.05
2019-03-28T08:59:56.718Z,23.66
2019-03-28T09:04:59.190Z,24.66
2019-03-28T09:10:01.665Z,24.37
2019-03-28T09:15:07.178Z,21.94
2019-03-28T09:20:09.655Z,18.61
2019-03-28T09:25:12.485Z,17.83
2019-03-28T09:30:14.585Z,14.92
2019-03-28T09:35:17.058Z,10.76
2019-03-28T09:40:19.529Z,13.93
2019-03-28T09:45:22.011Z,17.67
2019-03-28T09:50:24.486Z,11.83
2019-03-28T09:55:26.973Z,13.41
2019-03-28T10:00:32.571Z,13.09
2019-03-28T10:05:31.953Z,11.19
2019-03-28T10:10:34.446Z,11.95
2019-03-28T10:15:37.291Z,11.54
2019-03-28T10:20:39.602Z,9.62
2019-03-28T10:25:42.077Z,9.50
2019-03-28T10:30:44.966Z,9.32
2019-03-28T10:35:47.230Z,8.67
2019-03-28T10:40:49.702Z,8.81
2019-03-28T10:45:52.174Z,9.63
2019-03-28T10:50:54.651Z,9.13
2019-03-28T10:55:57.128Z,8.89
2019-03-28T11:00:59.612Z,9.53
2019-03-28T11:06:02.090Z,8.91
2019-03-28T11:11:04.552Z,9.88
2019-03-28T11:16:07.029Z,12.75
2019-03-28T11:21:09.528Z,16.67
2019-03-28T11:26:11.991Z,18.72
2019-03-28T11:31:14.468Z,15.68
2019-03-28T11:36:16.928Z,18.03
2019-03-28T11:41:19.390Z,22.39
2019-03-28T11:46:21.873Z,25.11
2019-03-28T11:51:24.321Z,27.07
2019-03-28T11:56:26.812Z,26.66
2019-03-28T12:01:29.301Z,27.44
2019-03-28T12:06:31.755Z,29.48
2019-03-28T12:11:34.221Z,29.52
2019-03-28T12:16:36.698Z,30.12
2019-03-28T12:21:39.162Z,29.33
2019-03-28T12:26:41.658Z,28.37
2019-03-28T12:31:44.124Z,27.93
2019-03-28T12:36:46.592Z,25.13
2019-03-28T12:41:49.071Z,25.63
2019-03-28T12:46:51.543Z,27.30
2019-03-28T12:51:54.043Z,28.84
2019-03-28T12:56:58.166Z,29.22
2019-03-28T13:01:58.973Z,30.42
2019-03-28T13:07:01.461Z,31.84
2019-03-28T13:12:03.936Z,33.86
2019-03-28T13:17:06.398Z,33.93
2019-03-28T13:22:08.877Z,34.07
2019-03-28T13:27:11.425Z,35.04
2019-03-28T13:32:13.791Z,34.38
2019-03-28T13:37:16.277Z,34.59
2019-03-28T13:42:18.737Z,34.60
2019-03-28T13:47:21.238Z,34.81
2019-03-28T13:52:23.689Z,35.20
2019-03-28T13:57:26.143Z,36.07
2019-03-28T14:02:28.617Z,36.55
2019-03-28T14:07:31.080Z,35.99
2019-03-28T14:12:33.515Z,36.25
2019-03-28T14:17:35.969Z,36.67
2019-03-28T14:22:38.413Z,37.00
2019-03-28T14:27:40.858Z,37.18
2019-03-28T14:32:53.097Z,36.21
2019-03-28T14:37:45.894Z,35.17
2019-03-28T14:42:48.357Z,35.57
2019-03-28T14:47:50.806Z,35.38
2019-03-28T14:52:53.270Z,35.33
2019-03-28T14:57:55.747Z,34.89
2019-03-28T15:02:58.198Z,35.68
2019-03-28T15:08:00.651Z,35.54
2019-03-28T15:13:03.101Z,36.07
2019-03-28T15:18:05.548Z,36.54
2019-03-28T15:23:08.024Z,36.87
2019-03-28T15:28:10.503Z,37.58
2019-03-28T15:33:12.932Z,37.83
2019-03-28T15:38:15.377Z,37.95
2019-03-28T15:43:17.859Z,38.18
2019-03-28T15:48:20.374Z,38.72
2019-03-28T15:53:23.185Z,38.60
2019-03-28T15:58:25.244Z,38.81
2019-03-28T16:03:27.701Z,38.61
2019-03-28T16:08:30.162Z,39.14
2019-03-28T16:13:32.633Z,39.12
2019-03-28T16:18:35.097Z,39.38
2019-03-28T16:23:37.613Z,39.92
2019-03-28T16:28:40.732Z,39.77
2019-03-28T16:33:42.521Z,40.04
2019-03-28T16:38:45.725Z,40.13
2019-03-28T16:43:47.418Z,40.98
2019-03-28T16:48:49.879Z,41.02
2019-03-28T16:53:52.339Z,41.06
2019-03-28T16:58:55.521Z,41.11
2019-03-28T17:03:57.255Z,41.34
2019-03-28T17:08:59.698Z,41.52
2019-03-28T17:14:02.162Z,42.13
2019-03-28T17:19:04.648Z,42.73
2019-03-28T17:24:07.077Z,43.02
2019-03-28T17:29:09.557Z,43.23
2019-03-28T17:34:12.025Z,43.19
2019-03-28T17:39:14.481Z,43.59
2019-03-28T17:44:16.957Z,43.99
2019-03-28T17:49:19.407Z,44.51
2019-03-28T17:54:21.898Z,45.00
2019-03-28T17:59:24.353Z,45.18
2019-03-28T18:04:26.839Z,45.70
2019-03-28T18:09:29.298Z,46.11
2019-03-28T18:14:31.781Z,46.54
2019-03-28T18:19:34.234Z,46.91
2019-03-28T18:24:36.703Z,47.21
2019-03-28T18:29:39.168Z,47.48
2019-03-28T18:34:41.621Z,47.88
2019-03-28T18:39:44.104Z,48.35
2019-03-28T18:44:46.560Z,48.69
2019-03-28T18:49:49.015Z,49.22
2019-03-28T18:54:51.466Z,49.66
2019-03-28T18:59:53.912Z,49.77
2019-03-28T19:04:56.623Z,50.33
2019-03-28T19:09:58.899Z,51.34
2019-03-28T19:15:01.387Z,51.80
2019-03-28T19:20:06.555Z,52.15
2019-03-28T19:25:09.343Z,52.74
2019-03-28T19:30:12.474Z,52.73
2019-03-28T19:35:14.018Z,52.85
2019-03-28T19:40:16.503Z,53.22
2019-03-28T19:45:35.866Z,53.56
2019-03-28T19:50:36.454Z,53.83
2019-03-28T19:55:40.069Z,54.04
2019-03-28T20:00:41.393Z,54.36
2019-03-28T20:05:47.895Z,54.99
2019-03-28T20:10:46.345Z,55.10
2019-03-28T20:15:48.799Z,55.60
2019-03-28T20:20:51.280Z,56.29
2019-03-28T20:25:53.745Z,56.38
2019-03-28T20:30:56.350Z,56.74
2019-03-28T20:36:12.005Z,56.97
2019-03-28T20:41:01.144Z,57.37
2019-03-28T20:46:03.630Z,57.69
2019-03-28T20:51:06.176Z,57.97
2019-03-28T20:56:08.576Z,58.32
2019-03-28T21:01:14.066Z,58.29
2019-03-28T21:06:19.382Z,59.10
2019-03-28T21:11:19.001Z,58.90
2019-03-28T21:16:21.466Z,58.89
2019-03-28T21:21:24.382Z,59.20
2019-03-28T21:26:26.595Z,59.58
2019-03-28T21:31:29.047Z,59.59
2019-03-28T21:36:32.279Z,59.98
2019-03-28T21:41:33.969Z,59.79
2019-03-28T21:46:36.423Z,60.13
2019-03-28T21:51:38.856Z,60.30
2019-03-28T21:56:41.641Z,60.49
2019-03-28T22:01:43.786Z,60.76
2019-03-28T22:06:46.306Z,61.16
2019-03-28T22:11:48.709Z,61.55
2019-03-28T22:16:51.193Z,61.58
2019-03-28T22:21:53.663Z,61.83
2019-03-28T22:26:56.176Z,61.99
2019-03-28T22:31:58.653Z,62.25
2019-03-28T22:37:03.656Z,62.28
2019-03-28T22:42:03.567Z,62.50
2019-03-28T22:47:06.167Z,63.00
2019-03-28T22:52:08.486Z,62.94
2019-03-28T22:57:11.019Z,63.12
2019-03-28T23:02:13.473Z,63.41
2019-03-28T23:07:15.958Z,63.40
2019-03-28T23:12:18.394Z,63.53
2019-03-28T23:17:21.048Z,64.17
2019-03-28T23:22:23.292Z,63.94
2019-03-28T23:27:26.931Z,64.36
2019-03-28T23:32:28.184Z,64.29
2019-03-28T23:37:30.646Z,64.56
2019-03-28T23:42:33.100Z,64.58
2019-03-28T23:47:35.562Z,64.81
2019-03-28T23:52:38.015Z,64.83
2019-03-28T23:57:40.469Z,64.84
